sensor_id;sensor_type;location;lat;lon;timestamp;P1;durP1;ratioP1;P2;durP2;ratioP2
4420;SDS011;11824;51.178;13.546;2022-10-03T00:01:15;18.67;;;2.67;;
4420;SDS011;11824;51.178;13.546;2022-10-03T00:03:57;22.27;;;3.90;;
4420;SDS011;11824;51.178;13.546;2022-10-03T00:06:39;26.43;;;5.97;;
4420;SDS011;11824;51.178;13.546;2022-10-03T00:09:27;9.43;;;3.10;;
4420;SDS011;11824;51.178;13.546;2022-10-03T00:12:13;10.87;;;3.13;;
4420;SDS011;11824;51.178;13.546;2022-10-03T00:14:51;9.37;;;2.33;;
4420;SDS011;11824;51.178;13.546;2022-10-03T00:17:26;10.30;;;1.80;;
4420;SDS011;11824;51.178;13.546;2022-10-03T00:20:05;18.90;;;4.00;;
4420;SDS011;11824;51.178;13.546;2022-10-03T00:22:42;13.17;;;3.80;;
4420;SDS011;11824;51.178;13.546;2022-10-03T00:25:19;15.13;;;2.67;;
4420;SDS011;11824;51.178;13.546;2022-10-03T00:28:02;17.73;;;2.80;;
4420;SDS011;11824;51.178;13.546;2022-10-03T00:30:51;8.63;;;2.63;;
4420;SDS011;11824;51.178;13.546;2022-10-03T00:33:38;18.97;;;3.60;;
4420;SDS011;11824;51.178;13.546;2022-10-03T00:36:16;16.40;;;2.93;;
4420;SDS011;11824;51.178;13.546;2022-10-03T00:39:02;27.90;;;3.27;;
4420;SDS011;11824;51.178;13.546;2022-10-03T00:41:58;17.73;;;3.30;;
4420;SDS011;11824;51.178;13.546;2022-10-03T00:45:01;17.97;;;2.80;;
4420;SDS011;11824;51.178;13.546;2022-10-03T00:48:05;23.80;;;2.93;;
4420;SDS011;11824;51.178;13.546;2022-10-03T00:50:58;18.80;;;2.90;;
4420;SDS011;11824;51.178;13.546;2022-10-03T00:53:41;12.60;;;3.47;;
4420;SDS011;11824;51.178;13.546;2022-10-03T00:56:33;18.70;;;3.33;;
4420;SDS011;11824;51.178;13.546;2022-10-03T00:59:29;12.57;;;2.50;;
4420;SDS011;11824;51.178;13.546;2022-10-03T01:04:59;9.07;;;2.30;;
4420;SDS011;11824;51.178;13.546;2022-10-03T01:07:50;19.27;;;2.77;;
4420;SDS011;11824;51.178;13.546;2022-10-03T01:10:29;16.93;;;2.63;;
4420;SDS011;11824;51.178;13.546;2022-10-03T01:13:12;17.27;;;3.27;;
4420;SDS011;11824;51.178;13.546;2022-10-03T01:15:52;13.10;;;2.63;;
4420;SDS011;11824;51.178;13.546;2022-10-03T01:18:30;12.27;;;2.60;;
4420;SDS011;11824;51.178;13.546;2022-10-03T01:21:11;12.73;;;2.63;;
4420;SDS011;11824;51.178;13.546;2022-10-03T01:26:57;9.70;;;2.30;;
4420;SDS011;11824;51.178;13.546;2022-10-03T01:29:37;20.70;;;2.60;;
4420;SDS011;11824;51.178;13.546;2022-10-03T01:32:39;18.30;;;2.60;;
4420;SDS011;11824;51.178;13.546;2022-10-03T01:35:16;15.67;;;3.17;;
4420;SDS011;11824;51.178;13.546;2022-10-03T01:38:02;8.57;;;2.43;;
4420;SDS011;11824;51.178;13.546;2022-10-03T01:40:41;12.00;;;3.07;;
4420;SDS011;11824;51.178;13.546;2022-10-03T01:43:15;8.07;;;2.33;;
4420;SDS011;11824;51.178;13.546;2022-10-03T01:45:54;11.67;;;2.43;;
4420;SDS011;11824;51.178;13.546;2022-10-03T01:48:34;20.87;;;3.00;;
4420;SDS011;11824;51.178;13.546;2022-10-03T01:51:10;7.60;;;2.23;;
4420;SDS011;11824;51.178;13.546;2022-10-03T01:53:46;17.97;;;2.80;;
4420;SDS011;11824;51.178;13.546;2022-10-03T01:56:26;8.47;;;2.00;;
4420;SDS011;11824;51.178;13.546;2022-10-03T01:59:03;14.07;;;2.40;;
4420;SDS011;11824;51.178;13.546;2022-10-03T02:01:38;33.57;;;3.17;;
4420;SDS011;11824;51.178;13.546;2022-10-03T02:04:17;16.60;;;2.80;;
4420;SDS011;11824;51.178;13.546;2022-10-03T02:06:58;14.47;;;3.10;;
4420;SDS011;11824;51.178;13.546;2022-10-03T02:09:35;12.87;;;3.20;;
4420;SDS011;11824;51.178;13.546;2022-10-03T02:12:18;21.13;;;2.97;;
4420;SDS011;11824;51.178;13.546;2022-10-03T02:14:56;13.90;;;2.33;;
4420;SDS011;11824;51.178;13.546;2022-10-03T02:17:41;17.07;;;2.80;;
4420;SDS011;11824;51.178;13.546;2022-10-03T02:20:20;14.27;;;2.77;;
4420;SDS011;11824;51.178;13.546;2022-10-03T02:22:54;12.13;;;2.17;;
4420;SDS011;11824;51.178;13.546;2022-10-03T02:25:25;16.57;;;2.27;;
4420;SDS011;11824;51.178;13.546;2022-10-03T02:34:16;14.57;;;3.70;;
4420;SDS011;11824;51.178;13.546;2022-10-03T02:37:02;11.20;;;1.97;;
4420;SDS011;11824;51.178;13.546;2022-10-03T02:43:17;7.90;;;2.97;;
4420;SDS011;11824;51.178;13.546;2022-10-03T02:46:34;18.67;;;2.60;;
4420;SDS011;11824;51.178;13.546;2022-10-03T02:49:31;18.50;;;4.33;;
4420;SDS011;11824;51.178;13.546;2022-10-03T02:58:28;19.73;;;4.47;;
4420;SDS011;11824;51.178;13.546;2022-10-03T03:01:22;9.80;;;3.10;;
4420;SDS011;11824;51.178;13.546;2022-10-03T03:04:18;19.43;;;3.93;;
4420;SDS011;11824;51.178;13.546;2022-10-03T03:07:11;11.30;;;3.37;;
4420;SDS011;11824;51.178;13.546;2022-10-03T03:10:18;17.60;;;4.60;;
4420;SDS011;11824;51.178;13.546;2022-10-03T03:13:14;9.50;;;3.60;;
4420;SDS011;11824;51.178;13.546;2022-10-03T03:16:13;61.53;;;6.27;;
4420;SDS011;11824;51.178;13.546;2022-10-03T03:19:24;10.77;;;3.10;;
4420;SDS011;11824;51.178;13.546;2022-10-03T03:22:07;14.70;;;3.33;;
4420;SDS011;11824;51.178;13.546;2022-10-03T03:28:02;20.70;;;3.33;;
4420;SDS011;11824;51.178;13.546;2022-10-03T03:30:40;12.40;;;4.10;;
4420;SDS011;11824;51.178;13.546;2022-10-03T03:33:15;15.33;;;2.90;;
4420;SDS011;11824;51.178;13.546;2022-10-03T03:35:54;9.43;;;2.60;;
4420;SDS011;11824;51.178;13.546;2022-10-03T03:38:33;14.73;;;3.30;;
4420;SDS011;11824;51.178;13.546;2022-10-03T03:44:08;14.80;;;3.40;;
4420;SDS011;11824;51.178;13.546;2022-10-03T03:47:01;3.20;;;2.00;;
4420;SDS011;11824;51.178;13.546;2022-10-03T03:49:45;15.03;;;3.70;;
4420;SDS011;11824;51.178;13.546;2022-10-03T03:52:34;12.17;;;3.20;;
4420;SDS011;11824;51.178;13.546;2022-10-03T03:55:24;19.73;;;4.23;;
4420;SDS011;11824;51.178;13.546;2022-10-03T03:58:12;11.90;;;3.47;;
4420;SDS011;11824;51.178;13.546;2022-10-03T04:01:04;9.80;;;3.80;;
4420;SDS011;11824;51.178;13.546;2022-10-03T04:04:00;19.17;;;4.60;;
4420;SDS011;11824;51.178;13.546;2022-10-03T04:06:42;15.33;;;3.87;;
4420;SDS011;11824;51.178;13.546;2022-10-03T04:12:18;19.17;;;3.17;;
4420;SDS011;11824;51.178;13.546;2022-10-03T04:17:56;11.27;;;3.17;;
4420;SDS011;11824;51.178;13.546;2022-10-03T04:21:06;6.43;;;2.43;;
4420;SDS011;11824;51.178;13.546;2022-10-03T04:23:50;17.30;;;3.80;;
4420;SDS011;11824;51.178;13.546;2022-10-03T04:26:31;12.83;;;3.63;;
4420;SDS011;11824;51.178;13.546;2022-10-03T04:29:17;14.40;;;4.13;;
4420;SDS011;11824;51.178;13.546;2022-10-03T04:31:58;14.80;;;3.93;;
4420;SDS011;11824;51.178;13.546;2022-10-03T04:34:41;18.13;;;3.00;;
4420;SDS011;11824;51.178;13.546;2022-10-03T04:37:19;10.40;;;2.83;;
4420;SDS011;11824;51.178;13.546;2022-10-03T04:39:53;13.03;;;2.97;;
4420;SDS011;11824;51.178;13.546;2022-10-03T04:42:40;9.50;;;2.97;;
4420;SDS011;11824;51.178;13.546;2022-10-03T04:45:26;10.10;;;3.13;;
4420;SDS011;11824;51.178;13.546;2022-10-03T04:48:06;13.40;;;4.00;;
4420;SDS011;11824;51.178;13.546;2022-10-03T04:50:43;11.50;;;4.00;;
4420;SDS011;11824;51.178;13.546;2022-10-03T04:53:26;5.20;;;2.20;;
4420;SDS011;11824;51.178;13.546;2022-10-03T04:56:15;26.97;;;3.57;;
4420;SDS011;11824;51.178;13.546;2022-10-03T04:59:03;22.00;;;3.17;;
4420;SDS011;11824;51.178;13.546;2022-10-03T05:01:49;8.73;;;3.60;;
4420;SDS011;11824;51.178;13.546;2022-10-03T05:04:23;10.93;;;3.53;;
4420;SDS011;11824;51.178;13.546;2022-10-03T05:06:58;11.53;;;3.73;;
4420;SDS011;11824;51.178;13.546;2022-10-03T05:09:35;17.17;;;4.00;;
4420;SDS011;11824;51.178;13.546;2022-10-03T05:12:11;16.63;;;3.63;;
4420;SDS011;11824;51.178;13.546;2022-10-03T05:14:57;14.53;;;4.20;;
4420;SDS011;11824;51.178;13.546;2022-10-03T05:17:43;13.33;;;2.83;;
4420;SDS011;11824;51.178;13.546;2022-10-03T05:20:23;13.07;;;3.60;;
4420;SDS011;11824;51.178;13.546;2022-10-03T05:23:09;24.50;;;6.27;;
4420;SDS011;11824;51.178;13.546;2022-10-03T05:25:59;19.30;;;4.10;;
4420;SDS011;11824;51.178;13.546;2022-10-03T05:28:56;9.83;;;3.87;;
4420;SDS011;11824;51.178;13.546;2022-10-03T05:31:32;16.90;;;6.10;;
4420;SDS011;11824;51.178;13.546;2022-10-03T05:34:19;12.30;;;3.30;;
4420;SDS011;11824;51.178;13.546;2022-10-03T05:37:13;11.80;;;3.13;;
4420;SDS011;11824;51.178;13.546;2022-10-03T05:40:00;13.37;;;3.47;;
4420;SDS011;11824;51.178;13.546;2022-10-03T05:42:34;14.90;;;4.13;;
4420;SDS011;11824;51.178;13.546;2022-10-03T05:45:19;15.90;;;4.97;;
4420;SDS011;11824;51.178;13.546;2022-10-03T05:47:59;20.93;;;5.03;;
4420;SDS011;11824;51.178;13.546;2022-10-03T05:54:06;9.33;;;4.27;;
4420;SDS011;11824;51.178;13.546;2022-10-03T06:00:14;14.33;;;4.00;;
4420;SDS011;11824;51.178;13.546;2022-10-03T06:02:50;5.60;;;3.33;;
4420;SDS011;11824;51.178;13.546;2022-10-03T06:05:45;8.73;;;5.00;;
4420;SDS011;11824;51.178;13.546;2022-10-03T06:08:42;14.00;;;5.17;;
4420;SDS011;11824;51.178;13.546;2022-10-03T06:11:45;24.33;;;5.80;;
4420;SDS011;11824;51.178;13.546;2022-10-03T06:14:32;17.73;;;5.63;;
4420;SDS011;11824;51.178;13.546;2022-10-03T06:17:19;27.00;;;7.10;;
4420;SDS011;11824;51.178;13.546;2022-10-03T06:19:58;13.67;;;5.20;;
4420;SDS011;11824;51.178;13.546;2022-10-03T06:22:55;9.20;;;4.60;;
4420;SDS011;11824;51.178;13.546;2022-10-03T06:28:39;14.83;;;4.23;;
4420;SDS011;11824;51.178;13.546;2022-10-03T06:43:48;14.87;;;5.10;;
4420;SDS011;11824;51.178;13.546;2022-10-03T06:49:41;13.47;;;5.27;;
4420;SDS011;11824;51.178;13.546;2022-10-03T06:58:37;6.13;;;3.47;;
4420;SDS011;11824;51.178;13.546;2022-10-03T07:04:53;22.37;;;6.37;;
4420;SDS011;11824;51.178;13.546;2022-10-03T07:10:51;13.13;;;5.43;;
4420;SDS011;11824;51.178;13.546;2022-10-03T07:13:46;19.43;;;5.10;;
4420;SDS011;11824;51.178;13.546;2022-10-03T07:16:49;18.00;;;4.87;;
4420;SDS011;11824;51.178;13.546;2022-10-03T07:25:46;12.60;;;3.53;;
4420;SDS011;11824;51.178;13.546;2022-10-03T07:31:41;16.80;;;4.13;;
4420;SDS011;11824;51.178;13.546;2022-10-03T07:34:30;16.43;;;4.60;;
4420;SDS011;11824;51.178;13.546;2022-10-03T07:37:24;10.10;;;3.13;;
4420;SDS011;11824;51.178;13.546;2022-10-03T07:40:33;18.10;;;7.40;;
4420;SDS011;11824;51.178;13.546;2022-10-03T07:43:38;20.53;;;8.47;;
4420;SDS011;11824;51.178;13.546;2022-10-03T07:52:47;7.57;;;5.30;;
4420;SDS011;11824;51.178;13.546;2022-10-03T07:55:40;18.93;;;5.57;;
4420;SDS011;11824;51.178;13.546;2022-10-03T07:58:21;10.67;;;5.40;;
4420;SDS011;11824;51.178;13.546;2022-10-03T08:04:34;15.47;;;6.93;;
4420;SDS011;11824;51.178;13.546;2022-10-03T08:07:27;17.37;;;3.87;;
4420;SDS011;11824;51.178;13.546;2022-10-03T08:10:09;6.60;;;3.90;;
4420;SDS011;11824;51.178;13.546;2022-10-03T08:13:16;11.20;;;5.50;;
4420;SDS011;11824;51.178;13.546;2022-10-03T08:16:01;17.53;;;4.83;;
4420;SDS011;11824;51.178;13.546;2022-10-03T08:18:53;7.53;;;4.87;;
4420;SDS011;11824;51.178;13.546;2022-10-03T08:21:46;6.57;;;2.90;;
4420;SDS011;11824;51.178;13.546;2022-10-03T08:24:32;17.97;;;5.10;;
4420;SDS011;11824;51.178;13.546;2022-10-03T08:27:31;15.10;;;4.77;;
4420;SDS011;11824;51.178;13.546;2022-10-03T08:30:22;22.73;;;5.83;;
4420;SDS011;11824;51.178;13.546;2022-10-03T08:36:06;6.80;;;3.10;;
4420;SDS011;11824;51.178;13.546;2022-10-03T08:39:08;16.40;;;4.70;;
4420;SDS011;11824;51.178;13.546;2022-10-03T08:44:44;15.53;;;3.90;;
4420;SDS011;11824;51.178;13.546;2022-10-03T08:47:47;13.90;;;5.03;;
4420;SDS011;11824;51.178;13.546;2022-10-03T08:56:56;17.60;;;4.97;;
4420;SDS011;11824;51.178;13.546;2022-10-03T08:59:55;18.77;;;5.23;;
4420;SDS011;11824;51.178;13.546;2022-10-03T09:06:13;17.97;;;5.30;;
4420;SDS011;11824;51.178;13.546;2022-10-03T09:09:28;7.23;;;4.83;;
4420;SDS011;11824;51.178;13.546;2022-10-03T09:12:33;12.00;;;3.70;;
4420;SDS011;11824;51.178;13.546;2022-10-03T09:15:28;12.73;;;5.00;;
4420;SDS011;11824;51.178;13.546;2022-10-03T09:18:31;9.33;;;4.20;;
4420;SDS011;11824;51.178;13.546;2022-10-03T09:21:29;10.23;;;4.30;;
4420;SDS011;11824;51.178;13.546;2022-10-03T09:24:18;11.93;;;4.17;;
4420;SDS011;11824;51.178;13.546;2022-10-03T09:27:21;5.37;;;2.60;;
4420;SDS011;11824;51.178;13.546;2022-10-03T09:30:18;10.87;;;4.60;;
4420;SDS011;11824;51.178;13.546;2022-10-03T09:32:59;7.30;;;3.20;;
4420;SDS011;11824;51.178;13.546;2022-10-03T09:36:07;12.13;;;2.70;;
4420;SDS011;11824;51.178;13.546;2022-10-03T09:39:05;11.10;;;4.30;;
4420;SDS011;11824;51.178;13.546;2022-10-03T09:45:21;15.03;;;3.00;;
4420;SDS011;11824;51.178;13.546;2022-10-03T09:51:21;10.13;;;2.60;;
4420;SDS011;11824;51.178;13.546;2022-10-03T10:03:55;13.23;;;3.10;;
4420;SDS011;11824;51.178;13.546;2022-10-03T10:10:47;12.30;;;1.97;;
4420;SDS011;11824;51.178;13.546;2022-10-03T10:16:43;9.50;;;2.63;;
4420;SDS011;11824;51.178;13.546;2022-10-03T10:19:53;12.03;;;2.77;;
4420;SDS011;11824;51.178;13.546;2022-10-03T10:25:35;6.50;;;2.00;;
4420;SDS011;11824;51.178;13.546;2022-10-03T10:32:01;7.90;;;1.50;;
4420;SDS011;11824;51.178;13.546;2022-10-03T10:34:58;6.67;;;3.00;;
4420;SDS011;11824;51.178;13.546;2022-10-03T10:38:20;9.33;;;2.63;;
4420;SDS011;11824;51.178;13.546;2022-10-03T10:44:03;4.10;;;1.70;;
4420;SDS011;11824;51.178;13.546;2022-10-03T10:47:09;3.23;;;1.60;;
4420;SDS011;11824;51.178;13.546;2022-10-03T10:50:19;15.93;;;3.60;;
4420;SDS011;11824;51.178;13.546;2022-10-03T10:59:49;11.73;;;3.20;;
4420;SDS011;11824;51.178;13.546;2022-10-03T11:09:08;10.30;;;2.27;;
4420;SDS011;11824;51.178;13.546;2022-10-03T11:22:01;14.13;;;2.50;;
4420;SDS011;11824;51.178;13.546;2022-10-03T11:31:36;11.47;;;3.00;;
4420;SDS011;11824;51.178;13.546;2022-10-03T11:37:35;9.27;;;3.07;;
4420;SDS011;11824;51.178;13.546;2022-10-03T11:40:18;8.00;;;2.50;;
4420;SDS011;11824;51.178;13.546;2022-10-03T11:42:55;6.93;;;2.77;;
4420;SDS011;11824;51.178;13.546;2022-10-03T11:45:52;4.30;;;1.77;;
4420;SDS011;11824;51.178;13.546;2022-10-03T11:48:30;16.60;;;2.50;;
4420;SDS011;11824;51.178;13.546;2022-10-03T11:51:06;6.97;;;2.63;;
4420;SDS011;11824;51.178;13.546;2022-10-03T11:53:44;16.03;;;2.20;;
4420;SDS011;11824;51.178;13.546;2022-10-03T11:56:38;8.87;;;2.60;;
4420;SDS011;11824;51.178;13.546;2022-10-03T11:59:18;3.53;;;1.80;;
4420;SDS011;11824;51.178;13.546;2022-10-03T12:02:11;14.37;;;2.00;;
4420;SDS011;11824;51.178;13.546;2022-10-03T12:04:46;4.87;;;2.13;;
4420;SDS011;11824;51.178;13.546;2022-10-03T12:07:22;13.17;;;2.50;;
4420;SDS011;11824;51.178;13.546;2022-10-03T12:10:34;5.30;;;1.60;;
4420;SDS011;11824;51.178;13.546;2022-10-03T12:13:08;5.13;;;1.90;;
4420;SDS011;11824;51.178;13.546;2022-10-03T12:15:40;3.97;;;2.00;;
4420;SDS011;11824;51.178;13.546;2022-10-03T12:18:15;2.07;;;1.30;;
4420;SDS011;11824;51.178;13.546;2022-10-03T12:21:02;7.43;;;2.17;;
4420;SDS011;11824;51.178;13.546;2022-10-03T12:23:49;7.50;;;1.27;;
4420;SDS011;11824;51.178;13.546;2022-10-03T12:26:27;9.57;;;2.30;;
4420;SDS011;11824;51.178;13.546;2022-10-03T12:29:09;13.30;;;2.07;;
4420;SDS011;11824;51.178;13.546;2022-10-03T12:31:40;3.20;;;1.60;;
4420;SDS011;11824;51.178;13.546;2022-10-03T12:34:20;12.60;;;1.90;;
4420;SDS011;11824;51.178;13.546;2022-10-03T12:37:05;8.67;;;2.30;;
4420;SDS011;11824;51.178;13.546;2022-10-03T12:39:47;6.43;;;1.83;;
4420;SDS011;11824;51.178;13.546;2022-10-03T12:42:29;11.60;;;2.23;;
4420;SDS011;11824;51.178;13.546;2022-10-03T12:45:11;9.33;;;3.00;;
4420;SDS011;11824;51.178;13.546;2022-10-03T12:50:45;8.80;;;2.00;;
4420;SDS011;11824;51.178;13.546;2022-10-03T12:53:27;8.17;;;1.60;;
4420;SDS011;11824;51.178;13.546;2022-10-03T12:56:03;8.53;;;3.10;;
4420;SDS011;11824;51.178;13.546;2022-10-03T12:58:45;13.83;;;2.70;;
4420;SDS011;11824;51.178;13.546;2022-10-03T13:01:25;5.53;;;1.90;;
4420;SDS011;11824;51.178;13.546;2022-10-03T13:04:01;10.33;;;2.17;;
4420;SDS011;11824;51.178;13.546;2022-10-03T13:06:40;6.00;;;1.70;;
4420;SDS011;11824;51.178;13.546;2022-10-03T13:09:38;13.73;;;2.23;;
4420;SDS011;11824;51.178;13.546;2022-10-03T13:12:23;8.03;;;2.20;;
4420;SDS011;11824;51.178;13.546;2022-10-03T13:18:25;9.13;;;2.37;;
4420;SDS011;11824;51.178;13.546;2022-10-03T13:21:03;7.43;;;2.33;;
4420;SDS011;11824;51.178;13.546;2022-10-03T13:23:57;15.73;;;2.47;;
4420;SDS011;11824;51.178;13.546;2022-10-03T13:26:37;9.27;;;2.80;;
4420;SDS011;11824;51.178;13.546;2022-10-03T13:29:20;12.40;;;3.80;;
4420;SDS011;11824;51.178;13.546;2022-10-03T13:32:09;7.50;;;2.80;;
4420;SDS011;11824;51.178;13.546;2022-10-03T13:34:56;8.80;;;1.73;;
4420;SDS011;11824;51.178;13.546;2022-10-03T13:37:58;10.93;;;2.60;;
4420;SDS011;11824;51.178;13.546;2022-10-03T13:40:44;8.10;;;2.37;;
4420;SDS011;11824;51.178;13.546;2022-10-03T13:43:19;6.60;;;2.00;;
4420;SDS011;11824;51.178;13.546;2022-10-03T13:45:54;9.73;;;2.27;;
4420;SDS011;11824;51.178;13.546;2022-10-03T13:48:23;18.13;;;2.63;;
4420;SDS011;11824;51.178;13.546;2022-10-03T13:50:54;6.83;;;2.00;;
4420;SDS011;11824;51.178;13.546;2022-10-03T13:53:51;9.23;;;1.60;;
4420;SDS011;11824;51.178;13.546;2022-10-03T13:56:34;3.00;;;1.50;;
4420;SDS011;11824;51.178;13.546;2022-10-03T13:59:13;5.77;;;1.73;;
4420;SDS011;11824;51.178;13.546;2022-10-03T14:02:26;3.70;;;1.00;;
4420;SDS011;11824;51.178;13.546;2022-10-03T14:05:19;7.10;;;2.23;;
4420;SDS011;11824;51.178;13.546;2022-10-03T14:08:33;4.47;;;1.83;;
4420;SDS011;11824;51.178;13.546;2022-10-03T14:11:20;9.90;;;2.00;;
4420;SDS011;11824;51.178;13.546;2022-10-03T14:13:57;6.67;;;2.00;;
4420;SDS011;11824;51.178;13.546;2022-10-03T14:16:50;9.43;;;1.80;;
4420;SDS011;11824;51.178;13.546;2022-10-03T14:19:29;11.30;;;2.03;;
4420;SDS011;11824;51.178;13.546;2022-10-03T14:22:09;10.43;;;1.80;;
4420;SDS011;11824;51.178;13.546;2022-10-03T14:24:57;8.53;;;3.13;;
4420;SDS011;11824;51.178;13.546;2022-10-03T14:27:40;7.00;;;2.33;;
4420;SDS011;11824;51.178;13.546;2022-10-03T14:30:20;5.83;;;2.07;;
4420;SDS011;11824;51.178;13.546;2022-10-03T14:32:58;14.10;;;2.03;;
4420;SDS011;11824;51.178;13.546;2022-10-03T14:35:40;9.13;;;2.00;;
4420;SDS011;11824;51.178;13.546;2022-10-03T14:38:20;12.50;;;1.50;;
4420;SDS011;11824;51.178;13.546;2022-10-03T14:41:15;4.10;;;1.30;;
4420;SDS011;11824;51.178;13.546;2022-10-03T14:43:48;7.00;;;1.77;;
4420;SDS011;11824;51.178;13.546;2022-10-03T14:46:22;5.00;;;2.13;;
4420;SDS011;11824;51.178;13.546;2022-10-03T14:48:55;6.60;;;2.20;;
4420;SDS011;11824;51.178;13.546;2022-10-03T14:51:28;5.57;;;2.00;;
4420;SDS011;11824;51.178;13.546;2022-10-03T14:54:01;6.57;;;2.67;;
4420;SDS011;11824;51.178;13.546;2022-10-03T14:56:39;5.77;;;3.07;;
4420;SDS011;11824;51.178;13.546;2022-10-03T14:59:11;14.00;;;2.00;;
4420;SDS011;11824;51.178;13.546;2022-10-03T15:01:50;10.00;;;2.07;;
4420;SDS011;11824;51.178;13.546;2022-10-03T15:04:24;5.50;;;1.47;;
4420;SDS011;11824;51.178;13.546;2022-10-03T15:06:57;7.17;;;1.57;;
4420;SDS011;11824;51.178;13.546;2022-10-03T15:09:29;14.73;;;2.07;;
4420;SDS011;11824;51.178;13.546;2022-10-03T15:12:09;8.07;;;1.70;;
4420;SDS011;11824;51.178;13.546;2022-10-03T15:14:43;6.10;;;2.40;;
4420;SDS011;11824;51.178;13.546;2022-10-03T15:17:21;8.40;;;1.93;;
4420;SDS011;11824;51.178;13.546;2022-10-03T15:19:54;5.10;;;1.60;;
4420;SDS011;11824;51.178;13.546;2022-10-03T15:22:28;11.93;;;2.03;;
4420;SDS011;11824;51.178;13.546;2022-10-03T15:25:02;4.63;;;2.20;;
4420;SDS011;11824;51.178;13.546;2022-10-03T15:27:33;8.23;;;2.60;;
4420;SDS011;11824;51.178;13.546;2022-10-03T15:30:05;5.77;;;1.60;;
4420;SDS011;11824;51.178;13.546;2022-10-03T15:32:46;5.70;;;2.20;;
4420;SDS011;11824;51.178;13.546;2022-10-03T15:35:16;9.57;;;1.67;;
4420;SDS011;11824;51.178;13.546;2022-10-03T15:37:49;6.43;;;2.00;;
4420;SDS011;11824;51.178;13.546;2022-10-03T15:40:23;9.37;;;2.50;;
4420;SDS011;11824;51.178;13.546;2022-10-03T15:43:02;17.80;;;3.30;;
4420;SDS011;11824;51.178;13.546;2022-10-03T15:45:34;9.87;;;2.00;;
4420;SDS011;11824;51.178;13.546;2022-10-03T15:48:09;10.97;;;5.90;;
4420;SDS011;11824;51.178;13.546;2022-10-03T15:50:42;14.20;;;2.13;;
4420;SDS011;11824;51.178;13.546;2022-10-03T15:53:19;6.10;;;2.07;;
4420;SDS011;11824;51.178;13.546;2022-10-03T15:56:06;14.00;;;3.70;;
4420;SDS011;11824;51.178;13.546;2022-10-03T15:58:41;5.27;;;2.17;;
4420;SDS011;11824;51.178;13.546;2022-10-03T16:01:15;8.13;;;1.80;;
4420;SDS011;11824;51.178;13.546;2022-10-03T16:03:49;7.10;;;2.33;;
4420;SDS011;11824;51.178;13.546;2022-10-03T16:06:22;11.27;;;2.83;;
4420;SDS011;11824;51.178;13.546;2022-10-03T16:09:01;8.23;;;2.07;;
4420;SDS011;11824;51.178;13.546;2022-10-03T16:11:38;7.70;;;5.43;;
4420;SDS011;11824;51.178;13.546;2022-10-03T16:14:15;8.83;;;3.57;;
4420;SDS011;11824;51.178;13.546;2022-10-03T16:16:49;8.07;;;2.17;;
4420;SDS011;11824;51.178;13.546;2022-10-03T16:22:16;11.90;;;3.37;;
4420;SDS011;11824;51.178;13.546;2022-10-03T16:24:56;6.17;;;1.97;;
4420;SDS011;11824;51.178;13.546;2022-10-03T16:27:30;10.40;;;2.60;;
4420;SDS011;11824;51.178;13.546;2022-10-03T16:30:12;5.90;;;1.60;;
4420;SDS011;11824;51.178;13.546;2022-10-03T16:32:45;11.07;;;3.40;;
4420;SDS011;11824;51.178;13.546;2022-10-03T16:35:29;8.33;;;2.17;;
4420;SDS011;11824;51.178;13.546;2022-10-03T16:38:01;6.40;;;1.87;;
4420;SDS011;11824;51.178;13.546;2022-10-03T16:40:34;8.13;;;2.30;;
4420;SDS011;11824;51.178;13.546;2022-10-03T16:43:04;4.37;;;1.87;;
4420;SDS011;11824;51.178;13.546;2022-10-03T16:45:35;7.87;;;1.50;;
4420;SDS011;11824;51.178;13.546;2022-10-03T16:48:09;7.27;;;2.03;;
4420;SDS011;11824;51.178;13.546;2022-10-03T16:51:04;6.63;;;2.30;;
4420;SDS011;11824;51.178;13.546;2022-10-03T16:53:40;15.20;;;1.80;;
4420;SDS011;11824;51.178;13.546;2022-10-03T16:56:12;13.13;;;2.67;;
4420;SDS011;11824;51.178;13.546;2022-10-03T16:58:42;5.97;;;2.07;;
4420;SDS011;11824;51.178;13.546;2022-10-03T17:01:21;5.63;;;2.00;;
4420;SDS011;11824;51.178;13.546;2022-10-03T17:03:57;4.63;;;2.10;;
4420;SDS011;11824;51.178;13.546;2022-10-03T17:06:39;9.10;;;2.10;;
4420;SDS011;11824;51.178;13.546;2022-10-03T17:09:14;5.80;;;2.23;;
4420;SDS011;11824;51.178;13.546;2022-10-03T17:11:48;9.30;;;2.70;;
4420;SDS011;11824;51.178;13.546;2022-10-03T17:14:20;9.43;;;2.53;;
4420;SDS011;11824;51.178;13.546;2022-10-03T17:16:50;8.17;;;1.60;;
4420;SDS011;11824;51.178;13.546;2022-10-03T17:19:26;8.40;;;2.90;;
4420;SDS011;11824;51.178;13.546;2022-10-03T17:22:04;25.63;;;3.80;;
4420;SDS011;11824;51.178;13.546;2022-10-03T17:24:41;9.47;;;2.00;;
4420;SDS011;11824;51.178;13.546;2022-10-03T17:27:15;5.03;;;1.57;;
4420;SDS011;11824;51.178;13.546;2022-10-03T17:29:50;6.27;;;2.40;;
4420;SDS011;11824;51.178;13.546;2022-10-03T17:32:24;2.23;;;1.60;;
4420;SDS011;11824;51.178;13.546;2022-10-03T17:34:59;7.13;;;1.97;;
4420;SDS011;11824;51.178;13.546;2022-10-03T17:41:12;5.30;;;2.13;;
4420;SDS011;11824;51.178;13.546;2022-10-03T17:43:45;5.03;;;2.07;;
4420;SDS011;11824;51.178;13.546;2022-10-03T17:46:25;5.90;;;2.17;;
4420;SDS011;11824;51.178;13.546;2022-10-03T17:49:04;5.60;;;2.10;;
4420;SDS011;11824;51.178;13.546;2022-10-03T17:51:44;7.93;;;1.97;;
4420;SDS011;11824;51.178;13.546;2022-10-03T17:54:15;11.87;;;2.07;;
4420;SDS011;11824;51.178;13.546;2022-10-03T17:56:49;9.17;;;2.10;;
4420;SDS011;11824;51.178;13.546;2022-10-03T17:59:22;3.37;;;1.67;;
4420;SDS011;11824;51.178;13.546;2022-10-03T18:01:54;11.00;;;2.37;;
4420;SDS011;11824;51.178;13.546;2022-10-03T18:04:28;6.43;;;2.60;;
4420;SDS011;11824;51.178;13.546;2022-10-03T18:07:01;3.53;;;1.70;;
4420;SDS011;11824;51.178;13.546;2022-10-03T18:09:35;6.83;;;1.93;;
4420;SDS011;11824;51.178;13.546;2022-10-03T18:12:13;7.40;;;2.13;;
4420;SDS011;11824;51.178;13.546;2022-10-03T18:14:58;9.80;;;2.20;;
4420;SDS011;11824;51.178;13.546;2022-10-03T18:17:52;10.63;;;2.00;;
4420;SDS011;11824;51.178;13.546;2022-10-03T18:20:41;7.30;;;1.80;;
4420;SDS011;11824;51.178;13.546;2022-10-03T18:23:17;7.33;;;2.17;;
4420;SDS011;11824;51.178;13.546;2022-10-03T18:26:12;4.50;;;1.70;;
4420;SDS011;11824;51.178;13.546;2022-10-03T18:28:52;3.00;;;1.87;;
4420;SDS011;11824;51.178;13.546;2022-10-03T18:31:37;11.97;;;2.17;;
4420;SDS011;11824;51.178;13.546;2022-10-03T18:34:12;5.60;;;1.53;;
4420;SDS011;11824;51.178;13.546;2022-10-03T18:36:46;8.17;;;4.47;;
4420;SDS011;11824;51.178;13.546;2022-10-03T18:39:17;3.67;;;2.17;;
4420;SDS011;11824;51.178;13.546;2022-10-03T18:41:49;4.27;;;1.37;;
4420;SDS011;11824;51.178;13.546;2022-10-03T18:44:25;7.43;;;2.50;;
4420;SDS011;11824;51.178;13.546;2022-10-03T18:47:00;7.30;;;3.03;;
4420;SDS011;11824;51.178;13.546;2022-10-03T18:49:44;9.67;;;2.13;;
4420;SDS011;11824;51.178;13.546;2022-10-03T18:52:21;5.43;;;1.67;;
4420;SDS011;11824;51.178;13.546;2022-10-03T18:54:57;6.33;;;1.80;;
4420;SDS011;11824;51.178;13.546;2022-10-03T18:57:32;8.33;;;1.97;;
4420;SDS011;11824;51.178;13.546;2022-10-03T19:00:04;4.30;;;2.03;;
4420;SDS011;11824;51.178;13.546;2022-10-03T19:02:44;9.07;;;2.10;;
4420;SDS011;11824;51.178;13.546;2022-10-03T19:05:18;3.70;;;1.90;;
4420;SDS011;11824;51.178;13.546;2022-10-03T19:07:50;8.80;;;1.80;;
4420;SDS011;11824;51.178;13.546;2022-10-03T19:10:28;5.90;;;2.47;;
4420;SDS011;11824;51.178;13.546;2022-10-03T19:13:14;10.97;;;2.70;;
4420;SDS011;11824;51.178;13.546;2022-10-03T19:18:46;4.17;;;1.60;;
4420;SDS011;11824;51.178;13.546;2022-10-03T19:21:24;4.47;;;2.57;;
4420;SDS011;11824;51.178;13.546;2022-10-03T19:23:56;3.47;;;2.10;;
4420;SDS011;11824;51.178;13.546;2022-10-03T19:26:31;7.03;;;1.87;;